Time,TemperatureF,DewpointF,PressureIn,WindDirection,WindDirectionDegrees,WindSpeedMPH,WindSpeedGustMPH,Humidity,HourlyPrecipIn,Conditions,Clouds,dailyrainin,SoftwareType,DateUTC
2013-11-09 00:12:00,42.1,29.2,30.15,West,270,4.7,-999.0,60,-99.99,,,0.00,Acu-Link.com,2013-11-09 05:12:00,
2013-11-09 00:27:00,42.1,29.6,30.15,WNW,292,7.8,-999.0,61,-99.99,,,0.00,Acu-Link.com,2013-11-09 05:27:00,
2013-11-09 00:42:00,42.1,29.6,30.14,West,270,1.7,-999.0,61,-99.99,,,0.00,Acu-Link.com,2013-11-09 05:42:00,
2013-11-09 00:57:00,41.7,28.9,30.14,North,0,6.3,-999.0,60,-99.99,,,0.00,Acu-Link.com,2013-11-09 05:57:00,
2013-11-09 01:12:00,41.7,29.3,30.14,WNW,292,3.2,-999.0,61,-99.99,,,0.00,Acu-Link.com,2013-11-09 06:12:00,
2013-11-09 01:28:00,41.5,29.9,30.15,NNW,337,3.2,-999.0,63,-99.99,,,0.00,Acu-Link.com,2013-11-09 06:28:00,
2013-11-09 01:43:00,41.2,29.2,30.16,West,270,5.8,-999.0,62,-99.99,,,0.00,Acu-Link.com,2013-11-09 06:43:00,
2013-11-09 01:58:00,41.0,29.8,30.16,West,270,3.7,-999.0,64,-99.99,,,0.00,Acu-Link.com,2013-11-09 06:58:00,
2013-11-09 02:13:00,40.8,29.6,30.16,WSW,247,2.7,-999.0,64,-99.99,,,0.00,Acu-Link.com,2013-11-09 07:13:00,
2013-11-09 02:28:00,40.6,29.4,30.17,West,270,3.2,-999.0,64,-99.99,,,0.00,Acu-Link.com,2013-11-09 07:28:00,
2013-11-09 02:43:00,40.5,29.7,30.17,West,270,3.7,-999.0,65,-99.99,,,0.00,Acu-Link.com,2013-11-09 07:43:00,
2013-11-09 02:58:00,40.1,29.3,30.17,SW,225,4.2,-999.0,65,-99.99,,,0.00,Acu-Link.com,2013-11-09 07:58:00,
2013-11-09 03:14:00,40.5,30.0,30.17,South,180,5.8,-999.0,66,-99.99,,,0.00,Acu-Link.com,2013-11-09 08:14:00,
2013-11-09 03:29:00,40.1,29.7,30.17,WNW,292,1.1,-999.0,66,-99.99,,,0.00,Acu-Link.com,2013-11-09 08:29:00,
2013-11-09 03:44:00,40.1,29.7,30.17,West,270,4.7,-999.0,66,-99.99,,,0.00,Acu-Link.com,2013-11-09 08:44:00,
2013-11-09 03:59:00,39.7,29.3,30.18,NNW,337,2.2,-999.0,66,-99.99,,,0.00,Acu-Link.com,2013-11-09 08:59:00,
2013-11-09 04:14:00,39.7,29.7,30.18,NNE,22,0.0,-999.0,67,-99.99,,,0.00,Acu-Link.com,2013-11-09 09:14:00,
2013-11-09 04:30:00,39.4,29.4,30.19,WNW,292,3.2,-999.0,67,-99.99,,,0.00,Acu-Link.com,2013-11-09 09:30:00,
2013-11-09 04:45:00,39.4,29.4,30.19,West,270,2.7,-999.0,67,-99.99,,,0.00,Acu-Link.com,2013-11-09 09:45:00,
2013-11-09 05:00:00,39.2,29.2,30.19,WNW,292,5.8,-999.0,67,-99.99,,,0.00,Acu-Link.com,2013-11-09 10:00:00,
2013-11-09 05:15:00,39.0,29.3,30.19,SSW,202,5.8,-999.0,68,-99.99,,,0.00,Acu-Link.com,2013-11-09 10:15:00,
2013-11-09 05:30:00,38.7,29.1,30.19,WSW,247,4.2,-999.0,68,-99.99,,,0.00,Acu-Link.com,2013-11-09 10:30:00,
2013-11-09 05:46:00,38.8,29.5,30.19,NNW,337,3.2,-999.0,69,-99.99,,,0.00,Acu-Link.com,2013-11-09 10:46:00,
2013-11-09 06:01:00,38.7,29.1,30.20,NW,315,4.2,-999.0,68,-99.99,,,0.00,Acu-Link.com,2013-11-09 11:01:00,
2013-11-09 06:16:00,38.7,29.4,30.20,West,270,4.2,-999.0,69,-99.99,,,0.00,Acu-Link.com,2013-11-09 11:16:00,
2013-11-09 06:31:00,38.5,29.2,30.20,WNW,292,5.8,-999.0,69,-99.99,,,0.00,Acu-Link.com,2013-11-09 11:31:00,
2013-11-09 06:46:00,38.3,29.0,30.21,West,270,3.7,-999.0,69,-99.99,,,0.00,Acu-Link.com,2013-11-09 11:46:00,
2013-11-09 07:01:00,38.3,29.0,30.20,North,0,2.7,-999.0,69,-99.99,,,0.00,Acu-Link.com,2013-11-09 12:01:00,
2013-11-09 07:16:00,38.5,28.9,30.21,WSW,247,3.7,-999.0,68,-99.99,,,0.00,Acu-Link.com,2013-11-09 12:16:00,
2013-11-09 07:32:00,39.0,29.7,30.21,NNW,337,4.2,-999.0,69,-99.99,,,0.00,Acu-Link.com,2013-11-09 12:32:00,
2013-11-09 07:47:00,38.8,29.2,30.21,SSW,202,3.7,-999.0,68,-99.99,,,0.00,Acu-Link.com,2013-11-09 12:47:00,
2013-11-09 08:02:00,39.9,30.2,30.22,West,270,7.8,-999.0,68,-99.99,,,0.00,Acu-Link.com,2013-11-09 13:02:00,
2013-11-09 08:17:00,40.6,30.1,30.23,West,270,7.3,-999.0,66,-99.99,,,0.00,Acu-Link.com,2013-11-09 13:17:00,
2013-11-09 08:32:00,40.6,29.8,30.22,South,180,2.2,-999.0,65,-99.99,,,0.00,Acu-Link.com,2013-11-09 13:32:00,
2013-11-09 08:48:00,41.9,31.0,30.21,SSE,157,3.7,-999.0,65,-99.99,,,0.00,Acu-Link.com,2013-11-09 13:48:00,
2013-11-09 09:03:00,41.7,30.0,30.20,WSW,247,4.7,-999.0,63,-99.99,,,0.00,Acu-Link.com,2013-11-09 14:03:00,
2013-11-09 09:18:00,42.4,30.7,30.21,SW,225,3.2,-999.0,63,-99.99,,,0.00,Acu-Link.com,2013-11-09 14:18:00,
2013-11-09 09:34:00,43.9,31.3,30.21,SSW,202,4.7,-999.0,61,-99.99,,,0.00,Acu-Link.com,2013-11-09 14:34:00,
2013-11-09 09:49:00,43.5,31.0,30.21,West,270,4.7,-999.0,61,-99.99,,,0.00,Acu-Link.com,2013-11-09 14:49:00,
2013-11-09 10:04:00,44.8,31.4,30.20,NW,315,5.3,-999.0,59,-99.99,,,0.00,Acu-Link.com,2013-11-09 15:04:00,
2013-11-09 10:19:00,45.3,31.0,30.20,West,270,4.7,-999.0,57,-99.99,,,0.00,Acu-Link.com,2013-11-09 15:19:00,
2013-11-09 10:35:00,45.5,31.2,30.20,West,270,5.8,-999.0,57,-99.99,,,0.00,Acu-Link.com,2013-11-09 15:35:00,
2013-11-09 10:50:00,46.0,31.2,30.19,SW,225,3.2,-999.0,56,-99.99,,,0.00,Acu-Link.com,2013-11-09 15:50:00,
2013-11-09 11:05:00,46.0,30.3,30.18,NW,315,3.7,-999.0,54,-99.99,,,0.00,Acu-Link.com,2013-11-09 16:05:00,
2013-11-09 11:20:00,46.2,30.9,30.18,WNW,292,4.7,-999.0,55,-99.99,,,0.00,Acu-Link.com,2013-11-09 16:20:00,
2013-11-09 11:35:00,46.6,30.4,30.17,SSW,202,5.3,-999.0,53,-99.99,,,0.00,Acu-Link.com,2013-11-09 16:35:00,
2013-11-09 11:50:00,46.8,30.1,30.16,WNW,292,5.8,-999.0,52,-99.99,,,0.00,Acu-Link.com,2013-11-09 16:50:00,
2013-11-09 12:06:00,47.8,30.6,30.15,WNW,292,3.7,-999.0,51,-99.99,,,0.00,Acu-Link.com,2013-11-09 17:06:00,
2013-11-09 12:21:00,47.5,29.8,30.14,NW,315,5.8,-999.0,50,-99.99,,,0.00,Acu-Link.com,2013-11-09 17:21:00,
2013-11-09 12:36:00,48.7,29.9,30.12,West,270,3.2,-999.0,48,-99.99,,,0.00,Acu-Link.com,2013-11-09 17:36:00,
2013-11-09 12:51:00,50.0,29.0,30.12,ESE,112,2.7,-999.0,44,-99.99,,,0.00,Acu-Link.com,2013-11-09 17:51:00,
2013-11-09 13:06:00,49.5,28.5,30.12,West,270,8.3,-999.0,44,-99.99,,,0.00,Acu-Link.com,2013-11-09 18:06:00,
2013-11-09 13:21:00,48.7,28.3,30.11,SSW,202,2.7,-999.0,45,-99.99,,,0.00,Acu-Link.com,2013-11-09 18:21:00,
2013-11-09 13:36:00,50.2,30.2,30.10,West,270,10.4,-999.0,46,-99.99,,,0.00,Acu-Link.com,2013-11-09 18:36:00,
2013-11-09 13:51:00,50.7,30.7,30.09,SSE,157,3.2,-999.0,46,-99.99,,,0.00,Acu-Link.com,2013-11-09 18:51:00,
2013-11-09 14:07:00,49.5,29.6,30.08,WNW,292,3.2,-999.0,46,-99.99,,,0.00,Acu-Link.com,2013-11-09 19:07:00,
2013-11-09 14:22:00,50.2,30.2,30.07,South,180,2.7,-999.0,46,-99.99,,,0.00,Acu-Link.com,2013-11-09 19:22:00,
2013-11-09 14:37:00,49.6,29.7,30.07,SSW,202,4.2,-999.0,46,-99.99,,,0.00,Acu-Link.com,2013-11-09 19:37:00,
2013-11-09 14:53:00,51.3,30.1,30.06,ESE,112,3.7,-999.0,44,-99.99,,,0.00,Acu-Link.com,2013-11-09 19:53:00,
2013-11-09 15:08:00,52.5,30.7,30.05,West,270,3.2,-999.0,43,-99.99,,,0.00,Acu-Link.com,2013-11-09 20:08:00,
2013-11-09 15:23:00,51.8,31.1,30.04,West,270,6.3,-999.0,45,-99.99,,,0.00,Acu-Link.com,2013-11-09 20:23:00,
2013-11-09 15:38:00,51.3,31.8,30.04,West,270,3.7,-999.0,47,-99.99,,,0.00,Acu-Link.com,2013-11-09 20:38:00,
2013-11-09 15:53:00,50.9,30.9,30.06,South,180,3.7,-999.0,46,-99.99,,,0.00,Acu-Link.com,2013-11-09 20:53:00,
2013-11-09 16:09:00,50.9,31.4,30.07,WSW,247,2.7,-999.0,47,-99.99,,,0.00,Acu-Link.com,2013-11-09 21:09:00,
2013-11-09 16:17:00,50.7,31.2,30.07,SSW,202,1.7,-999.0,47,-99.99,,,0.00,Acu-Link.com,2013-11-09 21:17:00,
2013-11-09 16:32:00,50.2,31.8,30.05,ESE,112,4.2,-999.0,49,-99.99,,,0.00,Acu-Link.com,2013-11-09 21:32:00,
2013-11-09 16:47:00,50.0,31.6,30.03,WSW,247,2.7,-999.0,49,-99.99,,,0.00,Acu-Link.com,2013-11-09 21:47:00,
2013-11-09 17:02:00,49.8,31.4,30.04,South,180,5.8,-999.0,49,-99.99,,,0.00,Acu-Link.com,2013-11-09 22:02:00,
2013-11-09 17:17:00,50.2,32.3,30.03,SSW,202,3.2,-999.0,50,-99.99,,,0.00,Acu-Link.com,2013-11-09 22:17:00,
2013-11-09 17:32:00,49.8,31.9,30.04,SW,225,2.7,-999.0,50,-99.99,,,0.00,Acu-Link.com,2013-11-09 22:32:00,
2013-11-09 17:47:00,50.0,32.1,30.05,ESE,112,9.9,-999.0,50,-99.99,,,0.00,Acu-Link.com,2013-11-09 22:47:00,
2013-11-09 18:03:00,49.8,31.9,30.06,ESE,112,3.7,-999.0,50,-99.99,,,0.00,Acu-Link.com,2013-11-09 23:03:00,
2013-11-09 18:18:00,49.6,31.7,30.06,South,180,2.2,-999.0,50,-99.99,,,0.00,Acu-Link.com,2013-11-09 23:18:00,
2013-11-09 18:33:00,50.0,32.6,30.05,South,180,4.7,-999.0,51,-99.99,,,0.00,Acu-Link.com,2013-11-09 23:33:00,
2013-11-09 18:48:00,49.6,32.2,30.03,SE,135,4.7,-999.0,51,-99.99,,,0.00,Acu-Link.com,2013-11-09 23:48:00,
2013-11-09 19:04:00,50.2,32.8,30.02,SSE,157,4.7,-999.0,51,-99.99,,,0.00,Acu-Link.com,2013-11-10 00:04:00,
2013-11-09 19:19:00,49.3,31.9,30.02,SSW,202,5.3,-999.0,51,-99.99,,,0.00,Acu-Link.com,2013-11-10 00:19:00,
2013-11-09 19:34:00,49.6,33.2,30.02,SSW,202,9.4,-999.0,53,-99.99,,,0.00,Acu-Link.com,2013-11-10 00:34:00,
2013-11-09 19:49:00,49.5,33.1,30.01,South,180,8.9,-999.0,53,-99.99,,,0.00,Acu-Link.com,2013-11-10 00:49:00,
2013-11-09 20:04:00,49.6,33.6,30.01,South,180,4.7,-999.0,54,-99.99,,,0.00,Acu-Link.com,2013-11-10 01:04:00,
2013-11-09 20:19:00,49.8,34.7,30.01,ENE,67,3.2,-999.0,56,-99.99,,,0.00,Acu-Link.com,2013-11-10 01:19:00,
2013-11-09 20:34:00,49.5,34.9,30.01,SSW,202,2.2,-999.0,57,-99.99,,,0.00,Acu-Link.com,2013-11-10 01:34:00,
2013-11-09 20:49:00,49.6,35.9,30.01,NNW,337,3.7,-999.0,59,-99.99,,,0.00,Acu-Link.com,2013-11-10 01:49:00,
2013-11-09 21:05:00,49.8,36.1,30.00,South,180,4.7,-999.0,59,-99.99,,,0.00,Acu-Link.com,2013-11-10 02:05:00,
2013-11-09 21:20:00,49.3,36.0,29.99,ESE,112,5.8,-999.0,60,-99.99,,,0.00,Acu-Link.com,2013-11-10 02:20:00,
2013-11-09 21:35:00,49.3,36.4,29.99,SSW,202,5.3,-999.0,61,-99.99,,,0.00,Acu-Link.com,2013-11-10 02:35:00,
2013-11-09 21:50:00,49.1,36.2,29.99,WNW,292,2.7,-999.0,61,-99.99,,,0.00,Acu-Link.com,2013-11-10 02:50:00,
2013-11-09 22:05:00,49.1,36.2,29.97,South,180,2.2,-999.0,61,-99.99,,,0.00,Acu-Link.com,2013-11-10 03:05:00,
2013-11-09 22:20:00,48.7,36.3,29.97,SW,225,7.8,-999.0,62,-99.99,,,0.00,Acu-Link.com,2013-11-10 03:20:00,
2013-11-09 22:36:00,48.7,36.3,29.96,SSE,157,3.7,-999.0,62,-99.99,,,0.00,Acu-Link.com,2013-11-10 03:36:00,
2013-11-09 22:51:00,48.7,36.7,29.95,SSE,157,5.3,-999.0,63,-99.99,,,0.00,Acu-Link.com,2013-11-10 03:51:00,
2013-11-09 23:06:00,49.3,37.2,29.94,SSW,202,5.3,-999.0,63,-99.99,,,0.00,Acu-Link.com,2013-11-10 04:06:00,
2013-11-09 23:21:00,49.3,37.2,29.93,SSE,157,5.8,-999.0,63,-99.99,,,0.00,Acu-Link.com,2013-11-10 04:21:00,
2013-11-09 23:36:00,49.1,37.1,29.92,SW,225,7.8,-999.0,63,-99.99,,,0.00,Acu-Link.com,2013-11-10 04:36:00,
2013-11-09 23:52:00,49.3,37.6,29.92,SE,135,6.8,-999.0,64,-99.99,,,0.00,Acu-Link.com,2013-11-10 04:52:00,